www.cux-wetter.de
Wetterdaten: Woche 31.05.10 - 06.06.10 (KW22)
Datum Zeit Temp. A. Feuchte A. Luftdruck Regen Wind Richtung Sonnenschein Solar Taupunkt Windchill Windben
31.05.2010 00:00 11,0 C 93 % 1001,5 hPa 0,0 l/m 20,3 km/h (4 Bft) NW 0,00 h 0 W/m 10,0 C 4,6 C 20,3 km/h (4 Bft)
31.05.2010 01:00 11,2 C 93 % 1001,5 hPa 0,0 l/m 21,4 km/h (4 Bft) N-NW 0,00 h 0 W/m 10,0 C 4,5 C 21,4 km/h (4 Bft)
31.05.2010 02:00 11,1 C 92 % 1001,5 hPa 0,0 l/m 24,9 km/h (4 Bft) N-NW 0,00 h 0 W/m 9,8 C 3,4 C 24,9 km/h (4 Bft)
31.05.2010 03:00 11,2 C 93 % 1001,5 hPa 0,0 l/m 23,6 km/h (4 Bft) NW 0,00 h 0 W/m 10,1 C 3,9 C 23,6 km/h (4 Bft)
31.05.2010 04:00 11,8 C 94 % 1002,1 hPa 0,0 l/m 15,1 km/h (3 Bft) N-NO 0,00 h 0 W/m 10,9 C 7,3 C 15,1 km/h (3 Bft)
31.05.2010 05:00 11,9 C 94 % 1003,0 hPa 0,0 l/m 14,6 km/h (3 Bft) N-NO 0,00 h 0 W/m 11,0 C 7,7 C 14,6 km/h (3 Bft)
31.05.2010 06:00 11,6 C 93 % 1003,9 hPa 0,0 l/m 16,7 km/h (3 Bft) N-NO 0,00 h 0 W/m 10,6 C 6,6 C 16,7 km/h (3 Bft)
31.05.2010 07:00 11,8 C 92 % 1004,5 hPa 0,0 l/m 18,0 km/h (3 Bft) N-NO 0,00 h 0 W/m 10,5 C 6,3 C 18,0 km/h (3 Bft)
31.05.2010 08:00 12,0 C 91 % 1005,9 hPa 0,0 l/m 18,6 km/h (3 Bft) N-NO 0,00 h 0 W/m 10,6 C 6,5 C 18,6 km/h (3 Bft)
31.05.2010 09:00 12,5 C 89 % 1007,0 hPa 0,0 l/m 16,6 km/h (3 Bft) N-NO 0,00 h 0 W/m 10,8 C 7,7 C 16,6 km/h (3 Bft)
31.05.2010 10:00 12,7 C 88 % 1008,0 hPa 0,0 l/m 17,8 km/h (3 Bft) N-NO 0,00 h 0 W/m 10,8 C 7,5 C 17,8 km/h (3 Bft)
31.05.2010 11:00 14,0 C 84 % 1008,6 hPa 0,0 l/m 14,9 km/h (3 Bft) N-NO 0,00 h 0 W/m 11,3 C 10,0 C 14,9 km/h (3 Bft)
31.05.2010 12:00 15,7 C 80 % 1009,5 hPa 0,0 l/m 14,9 km/h (3 Bft) N-NO 0,00 h 0 W/m 12,3 C 12,2 C 14,9 km/h (3 Bft)
31.05.2010 13:00 18,9 C 71 % 1010,2 hPa 0,0 l/m 16,7 km/h (3 Bft) N-NO 0,00 h 0 W/m 13,6 C 15,5 C 16,7 km/h (3 Bft)
31.05.2010 14:00 20,5 C 65 % 1010,5 hPa 0,0 l/m 16,7 km/h (3 Bft) N-NO 0,00 h 0 W/m 13,6 C 17,5 C 16,7 km/h (3 Bft)
31.05.2010 15:00 19,6 C 64 % 1011,3 hPa 0,0 l/m 16,3 km/h (3 Bft) N-NO 0,00 h 0 W/m 12,6 C 16,4 C 16,3 km/h (3 Bft)
31.05.2010 16:00 19,0 C 65 % 1011,6 hPa 0,0 l/m 16,1 km/h (3 Bft) N-NO 0,00 h 0 W/m 12,2 C 15,9 C 16,1 km/h (3 Bft)
31.05.2010 17:00 19,3 C 63 % 1012,5 hPa 0,0 l/m 11,5 km/h (2 Bft) N-NO 0,00 h 0 W/m 12,0 C 17,4 C 11,5 km/h (2 Bft)
31.05.2010 18:00 18,4 C 66 % 1012,5 hPa 0,0 l/m 13,5 km/h (3 Bft) N-NO 0,00 h 0 W/m 12,0 C 15,7 C 13,5 km/h (3 Bft)
31.05.2010 19:00 17,5 C 69 % 1012,8 hPa 0,0 l/m 11,3 km/h (2 Bft) N 0,00 h 0 W/m 11,8 C 15,4 C 11,3 km/h (2 Bft)
31.05.2010 20:00 16,0 C 74 % 1013,5 hPa 0,0 l/m 13,4 km/h (3 Bft) N 0,00 h 0 W/m 11,3 C 13,0 C 13,4 km/h (3 Bft)
31.05.2010 21:00 14,8 C 78 % 1013,9 hPa 0,0 l/m 14,1 km/h (3 Bft) N 0,00 h 0 W/m 11,0 C 11,3 C 14,1 km/h (3 Bft)
31.05.2010 22:00 13,8 C 82 % 1014,5 hPa 0,0 l/m 12,2 km/h (2 Bft) N 0,00 h 0 W/m 10,7 C 10,9 C 12,2 km/h (2 Bft)
31.05.2010 23:00 13,3 C 84 % 1014,5 hPa 0,0 l/m 10,7 km/h (2 Bft) N 0,00 h 0 W/m 10,6 C 11,0 C 10,7 km/h (2 Bft)
01.06.2010 00:00 12,8 C 86 % 1013,8 hPa 0,0 l/m 12,9 km/h (3 Bft) N 0,00 h 0 W/m 10,5 C 9,4 C 12,9 km/h (3 Bft)
01.06.2010 01:00 12,6 C 87 % 1013,5 hPa 0,0 l/m 13,1 km/h (3 Bft) N-NO 0,00 h 0 W/m 10,5 C 9,1 C 13,1 km/h (3 Bft)
01.06.2010 02:00 12,5 C 86 % 1013,5 hPa 0,0 l/m 12,9 km/h (3 Bft) N-NO 0,00 h 0 W/m 10,2 C 9,0 C 12,9 km/h (3 Bft)
01.06.2010 03:00 12,5 C 87 % 1013,5 hPa 0,0 l/m 12,7 km/h (3 Bft) N-NO 0,00 h 0 W/m 10,4 C 9,2 C 12,7 km/h (3 Bft)
01.06.2010 04:00 12,1 C 85 % 1013,5 hPa 0,0 l/m 12,8 km/h (3 Bft) N-NO 0,00 h 0 W/m 9,7 C 8,7 C 12,8 km/h (3 Bft)
01.06.2010 05:00 11,7 C 85 % 1013,5 hPa 0,0 l/m 10,4 km/h (2 Bft) N-NO 0,00 h 0 W/m 9,2 C 9,3 C 10,4 km/h (2 Bft)
01.06.2010 06:00 11,7 C 84 % 1013,5 hPa 0,0 l/m 10,0 km/h (2 Bft) N-NO 0,00 h 0 W/m 9,0 C 9,6 C 10,0 km/h (2 Bft)
01.06.2010 07:00 12,1 C 81 % 1013,5 hPa 0,0 l/m 11,6 km/h (2 Bft) N-NO 0,00 h 0 W/m 8,9 C 9,2 C 11,6 km/h (2 Bft)
01.06.2010 08:00 18,8 C 65 % 1013,5 hPa 0,0 l/m 11,0 km/h (2 Bft) N-NO 0,00 h 0 W/m 11,6 C 16,9 C 11,0 km/h (2 Bft)
01.06.2010 09:00 20,4 C 52 % 1013,5 hPa 0,0 l/m 9,6 km/h (2 Bft) N-NO 0,00 h 0 W/m 10,3 C 19,4 C 9,6 km/h (2 Bft)
01.06.2010 10:00 17,5 C 63 % 1013,5 hPa 0,0 l/m 9,6 km/h (2 Bft) N-NO 0,00 h 0 W/m 10,5 C 16,1 C 9,6 km/h (2 Bft)
01.06.2010 11:00 19,7 C 59 % 1013,5 hPa 0,0 l/m 13,0 km/h (3 Bft) N 0,00 h 0 W/m 11,4 C 17,5 C 13,0 km/h (3 Bft)
01.06.2010 12:00 20,8 C 56 % 1012,6 hPa 0,0 l/m 17,5 km/h (3 Bft) N 0,00 h 0 W/m 11,7 C 17,8 C 17,5 km/h (3 Bft)
01.06.2010 13:00 21,0 C 57 % 1012,5 hPa 0,0 l/m 19,2 km/h (3 Bft) N 0,00 h 0 W/m 12,1 C 17,6 C 19,2 km/h (3 Bft)
01.06.2010 14:00 21,0 C 58 % 1012,5 hPa 0,0 l/m 19,7 km/h (3 Bft) N 0,00 h 0 W/m 12,4 C 17,6 C 19,7 km/h (3 Bft)
01.06.2010 15:00 19,6 C 61 % 1012,5 hPa 0,0 l/m 21,0 km/h (4 Bft) N 0,00 h 0 W/m 11,9 C 15,5 C 21,0 km/h (4 Bft)
01.06.2010 16:00 18,4 C 64 % 1012,5 hPa 0,0 l/m 21,4 km/h (4 Bft) N 0,00 h 0 W/m 11,5 C 13,9 C 21,4 km/h (4 Bft)
01.06.2010 17:00 18,3 C 62 % 1012,5 hPa 0,0 l/m 24,3 km/h (4 Bft) N 0,00 h 0 W/m 10,8 C 13,2 C 24,3 km/h (4 Bft)
01.06.2010 18:00 17,4 C 63 % 1012,5 hPa 0,0 l/m 22,9 km/h (4 Bft) N-NO 0,00 h 0 W/m 10,2 C 12,3 C 22,9 km/h (4 Bft)
01.06.2010 19:00 16,7 C 65 % 1012,5 hPa 0,0 l/m 20,5 km/h (4 Bft) N-NO 0,00 h 0 W/m 10,1 C 11,9 C 20,5 km/h (4 Bft)
01.06.2010 20:00 15,7 C 69 % 1012,5 hPa 0,0 l/m 16,1 km/h (3 Bft) N-NO 0,00 h 0 W/m 10,1 C 11,8 C 16,1 km/h (3 Bft)
01.06.2010 21:00 14,8 C 75 % 1012,9 hPa 0,0 l/m 14,4 km/h (3 Bft) N-NO 0,00 h 0 W/m 10,3 C 11,2 C 14,4 km/h (3 Bft)
01.06.2010 22:00 14,1 C 80 % 1013,5 hPa 0,0 l/m 11,2 km/h (2 Bft) N-NO 0,00 h 0 W/m 10,7 C 11,6 C 11,2 km/h (2 Bft)
01.06.2010 23:00 13,6 C 85 % 1013,5 hPa 0,0 l/m 6,2 km/h (2 Bft) N-NO 0,00 h 0 W/m 11,0 C 12,9 C 6,2 km/h (2 Bft)
02.06.2010 00:00 12,4 C 87 % 1013,5 hPa 0,0 l/m 0,3 km/h (0 Bft) O-SO 0,00 h 0 W/m 10,3 C 12,4 C 0,3 km/h (0 Bft)
02.06.2010 01:00 11,3 C 88 % 1013,5 hPa 0,0 l/m 1,5 km/h (1 Bft) O 0,00 h 0 W/m 9,3 C 11,3 C 1,5 km/h (1 Bft)
02.06.2010 02:00 10,4 C 88 % 1013,5 hPa 0,0 l/m 0,0 km/h (0 Bft) N 0,00 h 0 W/m 8,5 C 10,4 C 0,0 km/h (0 Bft)
02.06.2010 03:00 9,7 C 89 % 1014,2 hPa 0,0 l/m 0,0 km/h (0 Bft) N 0,00 h 0 W/m 8,0 C 9,7 C 0,0 km/h (0 Bft)
02.06.2010 04:00 9,8 C 90 % 1014,5 hPa 0,0 l/m 1,9 km/h (1 Bft) O-NO 0,00 h 0 W/m 8,3 C 9,8 C 1,9 km/h (1 Bft)
02.06.2010 05:00 10,4 C 90 % 1014,5 hPa 0,0 l/m 5,2 km/h (1 Bft) NO 0,00 h 0 W/m 8,9 C 10,0 C 5,2 km/h (1 Bft)
02.06.2010 06:00 11,5 C 89 % 1015,4 hPa 0,0 l/m 10,4 km/h (2 Bft) N-NO 0,00 h 0 W/m 9,7 C 9,1 C 10,4 km/h (2 Bft)
02.06.2010 07:00 12,8 C 85 % 1015,5 hPa 0,0 l/m 7,9 km/h (2 Bft) N-NO 0,00 h 0 W/m 10,3 C 11,7 C 7,9 km/h (2 Bft)
02.06.2010 08:00 13,6 C 82 % 1016,1 hPa 0,0 l/m 7,3 km/h (2 Bft) N-NO 0,00 h 0 W/m 10,5 C 12,8 C 7,3 km/h (2 Bft)
02.06.2010 09:00 14,2 C 79 % 1016,5 hPa 0,0 l/m 9,7 km/h (2 Bft) N 0,00 h 0 W/m 10,5 C 12,3 C 9,7 km/h (2 Bft)
02.06.2010 10:00 15,3 C 75 % 1016,5 hPa 0,0 l/m 15,0 km/h (3 Bft) N-NO 0,00 h 0 W/m 10,8 C 11,6 C 15,0 km/h (3 Bft)
02.06.2010 11:00 17,8 C 68 % 1016,5 hPa 0,0 l/m 16,3 km/h (3 Bft) N-NO 0,00 h 0 W/m 11,7 C 14,3 C 16,3 km/h (3 Bft)
02.06.2010 12:00 20,9 C 58 % 1017,3 hPa 0,0 l/m 19,9 km/h (4 Bft) N-NO 0,00 h 0 W/m 12,3 C 17,4 C 19,9 km/h (4 Bft)
02.06.2010 13:00 20,8 C 58 % 1017,5 hPa 0,0 l/m 24,2 km/h (4 Bft) N 0,00 h 0 W/m 12,2 C 16,5 C 24,2 km/h (4 Bft)
02.06.2010 14:00 20,7 C 56 % 1017,5 hPa 0,0 l/m 25,5 km/h (4 Bft) N-NO 0,00 h 0 W/m 11,7 C 16,4 C 25,5 km/h (4 Bft)
02.06.2010 15:00 20,5 C 54 % 1017,5 hPa 0,0 l/m 25,2 km/h (4 Bft) N 0,00 h 0 W/m 11,0 C 16,1 C 25,2 km/h (4 Bft)
02.06.2010 16:00 20,3 C 54 % 1017,5 hPa 0,0 l/m 26,9 km/h (4 Bft) N 0,00 h 0 W/m 10,6 C 15,6 C 26,9 km/h (4 Bft)
02.06.2010 17:00 19,6 C 55 % 1017,5 hPa 0,0 l/m 24,7 km/h (4 Bft) N 0,00 h 0 W/m 10,4 C 14,9 C 24,7 km/h (4 Bft)
02.06.2010 18:00 18,1 C 60 % 1017,5 hPa 0,0 l/m 26,4 km/h (4 Bft) N-NO 0,00 h 0 W/m 10,3 C 12,6 C 26,4 km/h (4 Bft)
02.06.2010 19:00 16,7 C 64 % 1018,4 hPa 0,0 l/m 23,2 km/h (4 Bft) N-NO 0,00 h 0 W/m 9,9 C 11,4 C 23,2 km/h (4 Bft)
02.06.2010 20:00 15,9 C 67 % 1018,5 hPa 0,0 l/m 19,2 km/h (3 Bft) N-NO 0,00 h 0 W/m 9,7 C 11,2 C 19,2 km/h (3 Bft)
02.06.2010 21:00 15,0 C 72 % 1018,5 hPa 0,0 l/m 16,6 km/h (3 Bft) N-NO 0,00 h 0 W/m 10,0 C 10,7 C 16,6 km/h (3 Bft)
02.06.2010 22:00 14,3 C 75 % 1018,5 hPa 0,0 l/m 14,6 km/h (3 Bft) N-NO 0,00 h 0 W/m 9,9 C 10,5 C 14,6 km/h (3 Bft)
02.06.2010 23:00 13,9 C 77 % 1018,5 hPa 0,0 l/m 14,9 km/h (3 Bft) N-NO 0,00 h 0 W/m 9,9 C 10,0 C 14,9 km/h (3 Bft)
03.06.2010 00:00 13,6 C 76 % 1018,8 hPa 0,0 l/m 17,3 km/h (3 Bft) N-NO 0,00 h 0 W/m 9,4 C 8,8 C 17,3 km/h (3 Bft)
03.06.2010 01:00 13,5 C 76 % 1018,8 hPa 0,0 l/m 15,3 km/h (3 Bft) N-NO 0,00 h 0 W/m 9,3 C 9,3 C 15,3 km/h (3 Bft)
03.06.2010 02:00 13,3 C 74 % 1019,4 hPa 0,0 l/m 19,5 km/h (3 Bft) N-NO 0,00 h 0 W/m 8,9 C 7,8 C 19,5 km/h (3 Bft)
03.06.2010 03:00 12,9 C 73 % 1019,6 hPa 0,0 l/m 20,1 km/h (4 Bft) N-NO 0,00 h 0 W/m 8,3 C 7,1 C 20,1 km/h (4 Bft)
03.06.2010 04:00 12,6 C 77 % 1020,3 hPa 0,0 l/m 17,3 km/h (3 Bft) N-NO 0,00 h 0 W/m 8,7 C 7,5 C 17,3 km/h (3 Bft)
03.06.2010 05:00 12,4 C 81 % 1020,5 hPa 0,0 l/m 13,1 km/h (3 Bft) N-NO 0,00 h 0 W/m 9,2 C 9,0 C 13,1 km/h (3 Bft)
03.06.2010 06:00 12,8 C 83 % 1020,1 hPa 0,0 l/m 15,0 km/h (3 Bft) N-NO 0,00 h 0 W/m 10,0 C 8,6 C 15,0 km/h (3 Bft)
03.06.2010 07:00 13,4 C 82 % 1020,5 hPa 0,0 l/m 16,3 km/h (3 Bft) N-NO 0,00 h 0 W/m 10,4 C 8,9 C 16,3 km/h (3 Bft)
03.06.2010 08:00 19,0 C 67 % 1020,5 hPa 0,0 l/m 14,4 km/h (3 Bft) N-NO 0,00 h 0 W/m 12,6 C 16,3 C 14,4 km/h (3 Bft)
03.06.2010 09:00 21,3 C 57 % 1020,5 hPa 0,0 l/m 16,5 km/h (3 Bft) N 0,00 h 0 W/m 12,3 C 18,5 C 16,5 km/h (3 Bft)
03.06.2010 10:00 18,8 C 64 % 1020,5 hPa 0,0 l/m 19,0 km/h (3 Bft) N-NO 0,00 h 0 W/m 11,9 C 14,8 C 19,0 km/h (3 Bft)
03.06.2010 11:00 19,9 C 62 % 1020,5 hPa 0,0 l/m 22,5 km/h (4 Bft) N-NO 0,00 h 0 W/m 12,3 C 15,6 C 22,5 km/h (4 Bft)
03.06.2010 12:00 20,4 C 61 % 1020,7 hPa 0,0 l/m 22,3 km/h (4 Bft) N-NO 0,00 h 0 W/m 12,6 C 16,4 C 22,3 km/h (4 Bft)
03.06.2010 13:00 21,2 C 59 % 1020,5 hPa 0,0 l/m 23,5 km/h (4 Bft) N 0,00 h 0 W/m 12,7 C 17,2 C 23,5 km/h (4 Bft)
03.06.2010 14:00 21,1 C 57 % 1020,5 hPa 0,0 l/m 27,9 km/h (5 Bft) N-NO 0,00 h 0 W/m 12,2 C 16,5 C 27,9 km/h (5 Bft)
03.06.2010 15:00 21,0 C 56 % 1020,5 hPa 0,0 l/m 26,7 km/h (4 Bft) N 0,00 h 0 W/m 11,7 C 16,5 C 26,7 km/h (4 Bft)
03.06.2010 16:00 20,6 C 54 % 1020,5 hPa 0,0 l/m 28,1 km/h (5 Bft) N-NO 0,00 h 0 W/m 11,0 C 15,9 C 28,1 km/h (5 Bft)
03.06.2010 17:00 19,9 C 56 % 1020,5 hPa 0,0 l/m 26,4 km/h (4 Bft) N-NO 0,00 h 0 W/m 10,7 C 15,1 C 26,4 km/h (4 Bft)
03.06.2010 18:00 18,2 C 60 % 1020,5 hPa 0,0 l/m 28,6 km/h (5 Bft) N-NO 0,00 h 0 W/m 10,3 C 12,5 C 28,6 km/h (5 Bft)
03.06.2010 19:00 16,3 C 67 % 1020,5 hPa 0,0 l/m 22,9 km/h (4 Bft) N 0,00 h 0 W/m 10,3 C 10,9 C 22,9 km/h (4 Bft)
03.06.2010 20:00 15,1 C 72 % 1019,6 hPa 0,0 l/m 23,3 km/h (4 Bft) N 0,00 h 0 W/m 10,0 C 9,1 C 23,3 km/h (4 Bft)
03.06.2010 21:00 14,2 C 76 % 1019,5 hPa 0,0 l/m 18,4 km/h (3 Bft) N-NO 0,00 h 0 W/m 10,0 C 9,3 C 18,4 km/h (3 Bft)
03.06.2010 22:00 13,5 C 79 % 1019,5 hPa 0,0 l/m 17,6 km/h (3 Bft) N 0,00 h 0 W/m 10,0 C 8,6 C 17,6 km/h (3 Bft)
03.06.2010 23:00 13,0 C 83 % 1019,5 hPa 0,0 l/m 14,5 km/h (3 Bft) N 0,00 h 0 W/m 10,1 C 8,9 C 14,5 km/h (3 Bft)
04.06.2010 00:00 12,7 C 82 % 1019,5 hPa 0,0 l/m 15,9 km/h (3 Bft) N 0,00 h 0 W/m 9,8 C 8,2 C 15,9 km/h (3 Bft)
04.06.2010 01:00 12,3 C 81 % 1019,5 hPa 0,0 l/m 14,7 km/h (3 Bft) N 0,00 h 0 W/m 9,1 C 8,1 C 14,7 km/h (3 Bft)
04.06.2010 02:00 12,0 C 78 % 1019,5 hPa 0,0 l/m 15,9 km/h (3 Bft) N-NO 0,00 h 0 W/m 8,4 C 7,3 C 15,9 km/h (3 Bft)
04.06.2010 03:00 11,8 C 77 % 1019,5 hPa 0,0 l/m 16,8 km/h (3 Bft) N-NO 0,00 h 0 W/m 8,0 C 6,7 C 16,8 km/h (3 Bft)
04.06.2010 04:00 11,7 C 78 % 1018,7 hPa 0,0 l/m 17,5 km/h (3 Bft) N-NO 0,00 h 0 W/m 8,0 C 6,4 C 17,5 km/h (3 Bft)
04.06.2010 05:00 11,7 C 79 % 1018,5 hPa 0,0 l/m 19,2 km/h (3 Bft) N-NO 0,00 h 0 W/m 8,1 C 5,7 C 19,2 km/h (3 Bft)
04.06.2010 06:00 12,2 C 79 % 1019,4 hPa 0,0 l/m 17,5 km/h (3 Bft) N 0,00 h 0 W/m 8,7 C 7,0 C 17,5 km/h (3 Bft)
04.06.2010 07:00 12,9 C 76 % 1019,5 hPa 0,0 l/m 16,0 km/h (3 Bft) N 0,00 h 0 W/m 8,7 C 8,3 C 16,0 km/h (3 Bft)
04.06.2010 08:00 13,7 C 73 % 1019,5 hPa 0,0 l/m 15,1 km/h (3 Bft) N 0,00 h 0 W/m 8,9 C 9,6 C 15,1 km/h (3 Bft)
04.06.2010 09:00 15,1 C 67 % 1020,0 hPa 0,0 l/m 15,2 km/h (3 Bft) N-NW 0,00 h 0 W/m 9,0 C 11,3 C 15,2 km/h (3 Bft)
04.06.2010 10:00 16,4 C 62 % 1020,3 hPa 0,0 l/m 17,2 km/h (3 Bft) N 0,00 h 0 W/m 9,2 C 12,3 C 17,2 km/h (3 Bft)
04.06.2010 11:00 17,4 C 60 % 1020,1 hPa 0,0 l/m 18,8 km/h (3 Bft) N 0,00 h 0 W/m 9,5 C 13,2 C 18,8 km/h (3 Bft)
04.06.2010 12:00 18,1 C 57 % 1020,5 hPa 0,0 l/m 18,8 km/h (3 Bft) N 0,00 h 0 W/m 9,6 C 14,1 C 18,8 km/h (3 Bft)
04.06.2010 13:00 17,9 C 58 % 1020,5 hPa 0,0 l/m 18,8 km/h (3 Bft) N 0,00 h 0 W/m 9,6 C 13,8 C 18,8 km/h (3 Bft)
04.06.2010 14:00 17,5 C 60 % 1020,5 hPa 0,0 l/m 18,2 km/h (3 Bft) N 0,00 h 0 W/m 9,6 C 13,4 C 18,2 km/h (3 Bft)
04.06.2010 15:00 17,1 C 61 % 1020,5 hPa 0,0 l/m 18,4 km/h (3 Bft) N 0,00 h 0 W/m 9,6 C 12,9 C 18,4 km/h (3 Bft)
04.06.2010 16:00 16,5 C 63 % 1020,5 hPa 0,0 l/m 17,1 km/h (3 Bft) N 0,00 h 0 W/m 9,4 C 12,5 C 17,1 km/h (3 Bft)
04.06.2010 17:00 15,3 C 67 % 1020,5 hPa 0,0 l/m 15,2 km/h (3 Bft) N 0,00 h 0 W/m 9,1 C 11,5 C 15,2 km/h (3 Bft)
04.06.2010 18:00 15,2 C 68 % 1019,7 hPa 0,0 l/m 11,4 km/h (2 Bft) N 0,00 h 0 W/m 9,3 C 12,7 C 11,4 km/h (2 Bft)
04.06.2010 19:00 13,9 C 72 % 1019,8 hPa 0,0 l/m 12,9 km/h (3 Bft) N-NW 0,00 h 0 W/m 9,0 C 10,7 C 12,9 km/h (3 Bft)
04.06.2010 20:00 13,1 C 76 % 1019,5 hPa 0,0 l/m 12,8 km/h (3 Bft) N-NW 0,00 h 0 W/m 8,9 C 9,8 C 12,8 km/h (3 Bft)
04.06.2010 21:00 12,2 C 79 % 1019,8 hPa 0,0 l/m 10,0 km/h (2 Bft) NW 0,00 h 0 W/m 8,7 C 10,1 C 10,0 km/h (2 Bft)
04.06.2010 22:00 12,0 C 80 % 1020,5 hPa 0,0 l/m 10,9 km/h (2 Bft) N-NW 0,00 h 0 W/m 8,8 C 9,4 C 10,9 km/h (2 Bft)
04.06.2010 23:00 11,7 C 82 % 1020,5 hPa 0,0 l/m 11,3 km/h (2 Bft) N 0,00 h 0 W/m 8,7 C 8,9 C 11,3 km/h (2 Bft)
05.06.2010 00:00 11,1 C 83 % 1020,5 hPa 0,0 l/m 9,3 km/h (2 Bft) N 0,00 h 0 W/m 8,3 C 9,3 C 9,3 km/h (2 Bft)
05.06.2010 01:00 10,6 C 85 % 1020,5 hPa 0,0 l/m 7,5 km/h (2 Bft) N 0,00 h 0 W/m 8,2 C 9,7 C 7,5 km/h (2 Bft)
05.06.2010 02:00 10,9 C 86 % 1020,3 hPa 0,0 l/m 8,4 km/h (2 Bft) N 0,00 h 0 W/m 8,6 C 9,6 C 8,4 km/h (2 Bft)
05.06.2010 03:00 10,4 C 86 % 1019,5 hPa 0,0 l/m 4,2 km/h (1 Bft) N 0,00 h 0 W/m 8,1 C 10,4 C 4,2 km/h (1 Bft)
05.06.2010 04:00 10,7 C 86 % 1020,1 hPa 0,0 l/m 5,9 km/h (2 Bft) N-NW 0,00 h 0 W/m 8,5 C 10,1 C 5,9 km/h (2 Bft)
05.06.2010 05:00 11,0 C 83 % 1019,9 hPa 0,0 l/m 6,2 km/h (2 Bft) N 0,00 h 0 W/m 8,3 C 10,3 C 6,2 km/h (2 Bft)
05.06.2010 06:00 11,2 C 82 % 1020,3 hPa 0,0 l/m 6,7 km/h (2 Bft) N 0,00 h 0 W/m 8,2 C 10,3 C 6,7 km/h (2 Bft)
05.06.2010 07:00 11,9 C 78 % 1020,5 hPa 0,0 l/m 7,0 km/h (2 Bft) N 0,00 h 0 W/m 8,3 C 11,1 C 7,0 km/h (2 Bft)
05.06.2010 08:00 12,9 C 74 % 1020,5 hPa 0,0 l/m 7,8 km/h (2 Bft) NW 0,00 h 0 W/m 8,5 C 11,8 C 7,8 km/h (2 Bft)
05.06.2010 09:00 14,4 C 69 % 1020,5 hPa 0,0 l/m 10,2 km/h (2 Bft) NW 0,00 h 0 W/m 8,8 C 12,4 C 10,2 km/h (2 Bft)
05.06.2010 10:00 15,2 C 65 % 1020,5 hPa 0,0 l/m 10,1 km/h (2 Bft) N 0,00 h 0 W/m 8,8 C 13,4 C 10,1 km/h (2 Bft)
05.06.2010 11:00 16,5 C 62 % 1019,5 hPa 0,0 l/m 11,3 km/h (2 Bft) N 0,00 h 0 W/m 9,1 C 14,3 C 11,3 km/h (2 Bft)
05.06.2010 12:00 17,8 C 58 % 1019,5 hPa 0,0 l/m 11,9 km/h (2 Bft) N 0,00 h 0 W/m 9,5 C 15,6 C 11,9 km/h (2 Bft)
05.06.2010 13:00 18,9 C 56 % 1019,5 hPa 0,0 l/m 15,3 km/h (3 Bft) N 0,00 h 0 W/m 10,0 C 15,8 C 15,3 km/h (3 Bft)
05.06.2010 14:00 18,9 C 55 % 1019,3 hPa 0,0 l/m 16,1 km/h (3 Bft) N 0,00 h 0 W/m 9,6 C 15,7 C 16,1 km/h (3 Bft)
05.06.2010 15:00 18,4 C 56 % 1018,5 hPa 0,0 l/m 16,9 km/h (3 Bft) N 0,00 h 0 W/m 9,5 C 14,9 C 16,9 km/h (3 Bft)
05.06.2010 16:00 18,3 C 56 % 1018,5 hPa 0,0 l/m 15,3 km/h (3 Bft) N-NO 0,00 h 0 W/m 9,5 C 15,2 C 15,3 km/h (3 Bft)
05.06.2010 17:00 17,8 C 58 % 1018,4 hPa 0,0 l/m 15,2 km/h (3 Bft) N-NO 0,00 h 0 W/m 9,4 C 14,5 C 15,2 km/h (3 Bft)
05.06.2010 18:00 16,0 C 62 % 1017,5 hPa 0,0 l/m 14,1 km/h (3 Bft) N-NO 0,00 h 0 W/m 8,8 C 12,8 C 14,1 km/h (3 Bft)
05.06.2010 19:00 14,4 C 68 % 1017,5 hPa 0,0 l/m 11,0 km/h (2 Bft) N-NO 0,00 h 0 W/m 8,6 C 12,1 C 11,0 km/h (2 Bft)
05.06.2010 20:00 13,5 C 73 % 1016,8 hPa 0,0 l/m 7,7 km/h (2 Bft) N-NO 0,00 h 0 W/m 8,7 C 12,7 C 7,7 km/h (2 Bft)
05.06.2010 21:00 12,6 C 78 % 1016,5 hPa 0,0 l/m 4,1 km/h (1 Bft) N-NO 0,00 h 0 W/m 8,8 C 12,6 C 4,1 km/h (1 Bft)
05.06.2010 22:00 12,3 C 82 % 1016,5 hPa 0,0 l/m 6,9 km/h (2 Bft) N-NO 0,00 h 0 W/m 9,2 C 11,7 C 6,9 km/h (2 Bft)
05.06.2010 23:00 12,1 C 84 % 1016,5 hPa 0,0 l/m 3,0 km/h (1 Bft) N 0,00 h 0 W/m 9,4 C 11,9 C 3,0 km/h (1 Bft)
06.06.2010 00:00 11,3 C 87 % 1016,3 hPa 0,0 l/m 0,0 km/h (0 Bft) N 0,00 h 0 W/m 9,1 C 11,3 C 0,0 km/h (0 Bft)
06.06.2010 01:00 10,8 C 89 % 1015,6 hPa 0,0 l/m 0,0 km/h (0 Bft) N 0,00 h 0 W/m 9,0 C 10,8 C 0,0 km/h (0 Bft)
06.06.2010 02:00 10,5 C 90 % 1015,5 hPa 0,0 l/m 0,0 km/h (0 Bft) N 0,00 h 0 W/m 9,0 C 10,5 C 0,0 km/h (0 Bft)
06.06.2010 03:00 10,6 C 90 % 1014,8 hPa 0,0 l/m 0,5 km/h (0 Bft) O-NO 0,00 h 0 W/m 9,1 C 10,6 C 0,5 km/h (0 Bft)
06.06.2010 04:00 10,1 C 91 % 1014,5 hPa 0,0 l/m 1,2 km/h (1 Bft) O 0,00 h 0 W/m 8,7 C 10,1 C 1,2 km/h (1 Bft)
06.06.2010 05:00 9,7 C 91 % 1014,5 hPa 0,0 l/m 1,3 km/h (1 Bft) O 0,00 h 0 W/m 8,2 C 9,7 C 1,3 km/h (1 Bft)
06.06.2010 06:00 10,3 C 91 % 1014,4 hPa 0,0 l/m 0,6 km/h (0 Bft) SO 0,00 h 0 W/m 8,9 C 10,3 C 0,6 km/h (0 Bft)
06.06.2010 07:00 12,5 C 89 % 1013,7 hPa 0,0 l/m 1,9 km/h (1 Bft) SO 0,00 h 0 W/m 10,6 C 12,5 C 1,9 km/h (1 Bft)
06.06.2010 08:00 17,4 C 75 % 1013,4 hPa 0,0 l/m 4,0 km/h (1 Bft) O-SO 0,00 h 0 W/m 12,8 C 17,4 C 4,0 km/h (1 Bft)
06.06.2010 09:00 21,6 C 60 % 1012,5 hPa 0,0 l/m 7,0 km/h (2 Bft) O-SO 0,00 h 0 W/m 13,4 C 21,2 C 7,0 km/h (2 Bft)
06.06.2010 10:00 21,4 C 60 % 1012,3 hPa 0,0 l/m 7,0 km/h (2 Bft) SO 0,00 h 0 W/m 13,2 C 20,9 C 7,0 km/h (2 Bft)
06.06.2010 11:00 23,1 C 53 % 1011,5 hPa 0,0 l/m 8,9 km/h (2 Bft) O 0,00 h 0 W/m 12,9 C 22,4 C 8,9 km/h (2 Bft)
06.06.2010 12:00 25,3 C 46 % 1011,5 hPa 0,0 l/m 8,7 km/h (2 Bft) O-NO 0,00 h 0 W/m 12,6 C 24,6 C 8,7 km/h (2 Bft)
06.06.2010 13:00 26,9 C 39 % 1010,5 hPa 0,0 l/m 11,1 km/h (2 Bft) O 0,00 h 0 W/m 11,6 C 26,1 C 11,1 km/h (2 Bft)
06.06.2010 14:00 26,6 C 35 % 1009,9 hPa 0,0 l/m 11,6 km/h (2 Bft) NO 0,00 h 0 W/m 9,6 C 25,7 C 11,6 km/h (2 Bft)
06.06.2010 15:00 27,3 C 34 % 1009,5 hPa 0,0 l/m 11,8 km/h (2 Bft) N-NO 0,00 h 0 W/m 10,2 C 26,5 C 11,8 km/h (2 Bft)
06.06.2010 16:00 27,1 C 40 % 1008,9 hPa 0,0 l/m 13,1 km/h (3 Bft) N-NO 0,00 h 0 W/m 12,3 C 26,1 C 13,1 km/h (3 Bft)
06.06.2010 17:00 26,6 C 41 % 1008,2 hPa 0,0 l/m 12,6 km/h (2 Bft) N-NO 0,00 h 0 W/m 12,4 C 25,6 C 12,6 km/h (2 Bft)
06.06.2010 18:00 24,3 C 47 % 1007,3 hPa 0,0 l/m 7,3 km/h (2 Bft) N-NO 0,00 h 0 W/m 12,2 C 23,9 C 7,3 km/h (2 Bft)
06.06.2010 19:00 21,7 C 53 % 1006,5 hPa 0,0 l/m 11,7 km/h (2 Bft) NO 0,00 h 0 W/m 11,8 C 20,1 C 11,7 km/h (2 Bft)
06.06.2010 20:00 20,3 C 59 % 1006,3 hPa 0,0 l/m 9,6 km/h (2 Bft) N-NO 0,00 h 0 W/m 12,0 C 19,1 C 9,6 km/h (2 Bft)
06.06.2010 21:00 19,6 C 64 % 1005,5 hPa 0,0 l/m 9,9 km/h (2 Bft) N-NO 0,00 h 0 W/m 12,6 C 18,3 C 9,9 km/h (2 Bft)
06.06.2010 22:00 19,4 C 67 % 1005,1 hPa 0,0 l/m 9,8 km/h (2 Bft) O 0,00 h 0 W/m 13,1 C 17,9 C 9,8 km/h (2 Bft)
06.06.2010 23:00 18,7 C 72 % 1004,8 hPa 0,0 l/m 12,1 km/h (2 Bft) SO 0,00 h 0 W/m 13,5 C 16,5 C 12,1 km/h (2 Bft)
Min-Datum _ 06.06.10 06.06.10 31.05.10 - 01.06.10 - - - 06.06.10 31.05.10 01.06.10
_ Min-Zeit 05:44 14:09 00:01 - 23:57 - - - 05:44 02:51 23:57
Minimum _ 9,4 C 29 % 1001,5 hPa - 0,0 km/h (0 Bft) - - - 7,8 C 1,7 C 0,0 km/h (0 Bft)
Max-Datum _ 06.06.10 31.05.10 03.06.10 31.05.10 03.06.10 - 31.05.10 31.05.10 06.06.10 06.06.10 03.06.10
_ Max-Zeit 15:19 03:56 12:28 00:01 18:24 - 00:01 00:01 09:29 15:19 18:24
Maximum _ 28,1 C 94 % 1021,5 hPa 0,0 l/m 37,5 km/h
N-NO (5 Bft)
- 0,00 h 0 W/m 14,5 C 27,4 C 37,5 km/h
N-NO (5 Bft)
Durchschnitt _ 15,7 C 72 % 1015,4 hPa #0,0 l/m 13,9 km/h (3 Bft) N-NO #0 min. 0 W/m 10,3 C 12,7 C 13,9 km/h (3 Bft)
copyright by Holger Just